ソウル/仁川 の空港の天気 - METARとTAF

仁川国際空港 ( RKSI / ICN ) - 大韓民国 仁川広域市 (ソウル特別市近郊)
飛行場実況気象(Metar)
観測時間09/26 21:30 KST (09/26 12:30 UTC)
風向・風速北 1m/s
視程4000m
天気現象弱い雨 もや
全天の4割程度の雲 雲底高度 1070m
全天を覆う雲 雲底高度 3350m
気温23℃
湿度78%
気圧1010hPa
METARRKSI 261230Z 35002KT 4000 -RA BR SCT035 OVC110 23/19 Q1010 NOSIG
過去の天気等 Google飛行場航空写真 Wunderground天気予報

過去48時間のMETAR

飛行場予報(TAF)
発表時間: 9/26 20:00 KST (9/26 11:00 UTC)
予報対象時間: 26日21時 KST ~ 28日3時 KST
風向・風速北西 3m/s
視程4,200m
天気現象もや
少しの雲 雲底高度 300m
全天の8割程度の雲 雲底高度 760m
全天を覆う雲 雲底高度 3,050m
26日21時 KST ~ 26日23時 KST に一時的に
天気現象弱い雨
27日0時 KST ~ 27日1時 KST に徐々に
風向・風速北北東 4m/s
天気現象弱い雨
27日6時 KST ~ 27日7時 KST に徐々に
風向・風速南 4m/s
視程6,000m
天気現象運行に影響にある天気現象が終了
27日12時 KST ~ 27日13時 KST に徐々に
風向・風速西南西 5m/s
全天の4割程度の雲 雲底高度 910m
全天の8割程度の雲 雲底高度 4,570m
27日17時 KST ~ 27日18時 KST に徐々に
風向・風速北北西 5m/s
TAF RKSI 261100Z 2612/2718 32005KT 4200 BR FEW010 BKN025 OVC100 TN19/2619Z TX28/2704Z
TEMPO 2612/2614 -RA
BECMG 2615/2616 02007KT -RA
BECMG 2621/2622 17007KT 6000 NSW
BECMG 2703/2704 25010KT SCT030 BKN150
BECMG 2708/2709 33010KT